createdAt,value
2022-09-21T00:00:11.966Z,51.10
2022-09-21T00:02:38.741Z,51.10
2022-09-21T00:05:06.555Z,51.20
2022-09-21T00:07:33.215Z,51.20
2022-09-21T00:09:59.912Z,51.30
2022-09-21T00:12:26.573Z,51.30
2022-09-21T00:14:53.335Z,51.30
2022-09-21T00:17:21.210Z,51.30
2022-09-21T00:19:47.880Z,51.40
2022-09-21T00:22:14.543Z,51.40
2022-09-21T00:24:41.192Z,51.40
2022-09-21T00:27:07.857Z,51.60
2022-09-21T00:29:35.514Z,51.50
2022-09-21T00:32:02.213Z,51.50
2022-09-21T00:34:28.859Z,51.60
2022-09-21T00:36:55.507Z,51.50
2022-09-21T00:39:22.513Z,51.50
2022-09-21T00:41:53.619Z,51.50
2022-09-21T00:44:20.376Z,51.50
2022-09-21T00:46:47.241Z,51.60
2022-09-21T00:49:13.937Z,51.50
2022-09-21T00:51:41.402Z,51.50
2022-09-21T00:54:09.734Z,51.60
2022-09-21T00:56:36.468Z,51.60
2022-09-21T00:59:03.167Z,51.50
2022-09-21T01:01:30.165Z,51.50
2022-09-21T01:03:57.365Z,51.50
2022-09-21T01:06:24.630Z,51.50
2022-09-21T01:08:54.242Z,51.50
2022-09-21T01:11:40.251Z,51.50
2022-09-21T01:14:25.725Z,51.50
2022-09-21T01:17:02.596Z,51.50
2022-09-21T01:19:29.269Z,51.30
2022-09-21T01:22:01.559Z,51.00
2022-09-21T01:24:34.237Z,50.70
2022-09-21T01:27:10.061Z,50.40
2022-09-21T01:29:36.750Z,50.20
2022-09-21T01:32:22.181Z,50.00
2022-09-21T01:34:50.695Z,50.00
2022-09-21T01:37:21.542Z,50.00
2022-09-21T01:39:48.876Z,50.00
2022-09-21T01:42:15.871Z,50.00
2022-09-21T01:44:43.164Z,50.20
2022-09-21T01:47:10.860Z,50.30
2022-09-21T01:49:38.519Z,50.30
2022-09-21T01:52:07.339Z,50.40
2022-09-21T01:54:41.830Z,50.50
2022-09-21T01:57:14.540Z,50.50
2022-09-21T01:59:51.354Z,50.60
2022-09-21T02:02:24.110Z,50.60
2022-09-21T02:04:50.750Z,50.70
2022-09-21T02:07:17.814Z,50.70
2022-09-21T02:09:47.088Z,50.70
2022-09-21T02:12:18.759Z,50.70
2022-09-21T02:14:45.892Z,50.80
2022-09-21T02:17:33.449Z,50.80
2022-09-21T02:20:06.765Z,50.80
2022-09-21T02:22:36.202Z,50.90
2022-09-21T02:25:08.133Z,50.90
2022-09-21T02:27:34.795Z,51.00
2022-09-21T02:30:01.865Z,51.00
2022-09-21T02:32:28.500Z,50.90
2022-09-21T02:35:17.349Z,51.00
2022-09-21T02:37:45.533Z,51.00
2022-09-21T02:40:27.571Z,51.10
2022-09-21T02:42:55.975Z,51.10
2022-09-21T02:45:26.907Z,51.10
2022-09-21T02:48:03.599Z,51.20
2022-09-21T02:50:33.572Z,51.10
2022-09-21T02:53:00.852Z,51.20
2022-09-21T02:55:27.556Z,51.20
2022-09-21T02:57:54.356Z,51.20
2022-09-21T03:00:21.347Z,51.30
2022-09-21T03:02:47.982Z,51.20
2022-09-21T03:05:14.640Z,51.30
2022-09-21T03:07:41.404Z,51.30
2022-09-21T03:10:09.341Z,51.30
2022-09-21T03:12:36.108Z,51.40
2022-09-21T03:15:03.028Z,51.40
2022-09-21T03:17:29.938Z,51.40
2022-09-21T03:19:56.614Z,51.40
2022-09-21T03:22:26.565Z,51.40
2022-09-21T03:24:57.497Z,51.50
2022-09-21T03:27:24.364Z,51.40
2022-09-21T03:29:51.006Z,51.40
2022-09-21T03:32:17.649Z,51.40
2022-09-21T03:34:44.397Z,51.10
2022-09-21T03:37:11.110Z,50.80
2022-09-21T03:39:37.798Z,50.60
2022-09-21T03:42:04.557Z,50.50
2022-09-21T03:44:31.367Z,50.30
2022-09-21T03:46:58.281Z,50.30
2022-09-21T03:49:25.183Z,50.00
2022-09-21T03:51:51.895Z,50.00
2022-09-21T03:54:18.564Z,50.10
2022-09-21T03:56:45.233Z,49.90
2022-09-21T03:59:14.257Z,50.10
2022-09-21T04:01:41.616Z,50.10
2022-09-21T04:04:08.379Z,50.20
2022-09-21T04:06:35.058Z,50.30
2022-09-21T04:09:03.567Z,50.40
2022-09-21T04:11:32.495Z,50.50
2022-09-21T04:13:59.898Z,50.50
2022-09-21T04:16:27.142Z,50.50
2022-09-21T04:18:53.817Z,50.60
2022-09-21T04:21:21.683Z,50.60
2022-09-21T04:23:49.713Z,50.70
2022-09-21T04:26:26.484Z,50.70
2022-09-21T04:28:53.214Z,50.70
2022-09-21T04:31:19.941Z,50.80
2022-09-21T04:33:50.523Z,51.00
2022-09-21T04:36:17.608Z,50.90
2022-09-21T04:38:44.507Z,51.20
2022-09-21T04:41:11.235Z,51.30
2022-09-21T04:43:38.168Z,51.40
2022-09-21T04:46:08.458Z,51.50
2022-09-21T04:48:35.377Z,51.50
2022-09-21T04:51:02.627Z,51.50
2022-09-21T04:53:29.694Z,51.50
2022-09-21T04:55:56.392Z,51.50
2022-09-21T04:58:24.619Z,51.50
2022-09-21T05:00:51.919Z,51.50
2022-09-21T05:03:18.781Z,51.20
2022-09-21T05:05:48.960Z,49.80
2022-09-21T05:08:16.009Z,48.00
2022-09-21T05:10:42.935Z,46.80
2022-09-21T05:13:09.703Z,49.30
2022-09-21T05:15:39.599Z,50.50
2022-09-21T05:18:06.275Z,50.60
2022-09-21T05:20:32.944Z,50.40
2022-09-21T05:23:01.698Z,50.40
2022-09-21T05:25:28.465Z,50.50
2022-09-21T05:27:55.110Z,50.50
2022-09-21T05:30:22.177Z,50.50
2022-09-21T05:32:49.204Z,50.60
2022-09-21T05:35:18.318Z,50.60
2022-09-21T05:37:49.862Z,50.60
2022-09-21T05:40:16.702Z,50.70
2022-09-21T05:42:43.500Z,50.80
2022-09-21T05:45:14.374Z,50.80
2022-09-21T05:47:55.123Z,50.90
2022-09-21T05:50:21.819Z,50.90
2022-09-21T05:53:03.661Z,50.90
2022-09-21T05:55:36.378Z,50.90
2022-09-21T05:58:09.040Z,51.00
2022-09-21T06:00:54.994Z,50.90
2022-09-21T06:03:31.359Z,50.90
2022-09-21T06:05:58.230Z,50.60
2022-09-21T06:08:25.324Z,50.40
2022-09-21T06:10:52.132Z,50.30
2022-09-21T06:13:18.821Z,49.90
2022-09-21T06:15:45.537Z,50.50
2022-09-21T06:18:17.539Z,49.90
2022-09-21T06:20:44.845Z,50.50
2022-09-21T06:23:11.925Z,50.00
2022-09-21T06:25:38.686Z,50.10
2022-09-21T06:28:05.640Z,50.20
2022-09-21T06:30:34.596Z,50.20
2022-09-21T06:33:01.513Z,50.40
2022-09-21T06:35:28.631Z,50.40
2022-09-21T06:37:59.442Z,50.50
2022-09-21T06:40:27.197Z,50.50
2022-09-21T06:43:00.286Z,50.60
2022-09-21T06:45:27.400Z,50.50
2022-09-21T06:47:54.043Z,50.60
2022-09-21T06:50:20.778Z,50.70
2022-09-21T06:52:47.435Z,50.70
2022-09-21T06:55:14.672Z,50.70
2022-09-21T06:57:41.340Z,50.80
2022-09-21T07:00:09.344Z,50.90
2022-09-21T07:02:36.026Z,50.90
2022-09-21T07:05:03.604Z,50.90
2022-09-21T07:07:31.621Z,50.90
2022-09-21T07:10:05.709Z,50.90
2022-09-21T07:12:34.799Z,50.90
2022-09-21T07:15:02.222Z,51.00
2022-09-21T07:17:35.683Z,51.10
2022-09-21T07:20:04.462Z,51.10
2022-09-21T07:22:31.521Z,51.20
2022-09-21T07:24:58.195Z,51.10
2022-09-21T07:27:25.263Z,51.40
2022-09-21T07:29:52.112Z,51.30
2022-09-21T07:32:18.890Z,51.40
2022-09-21T07:34:46.638Z,51.30
2022-09-21T07:37:13.677Z,51.30
2022-09-21T07:39:40.426Z,51.30
2022-09-21T07:42:07.169Z,51.30
2022-09-21T07:44:34.262Z,51.30
2022-09-21T07:47:03.410Z,51.30
2022-09-21T07:49:30.214Z,51.30
2022-09-21T07:52:01.497Z,51.30
2022-09-21T07:54:30.458Z,51.30
2022-09-21T07:57:15.880Z,51.30
2022-09-21T07:59:42.538Z,51.30
2022-09-21T08:02:09.290Z,51.30
2022-09-21T08:04:36.062Z,51.40
2022-09-21T08:07:02.739Z,51.20
2022-09-21T08:09:29.392Z,51.10
2022-09-21T08:11:56.733Z,50.70
2022-09-21T08:14:26.402Z,50.50
2022-09-21T08:16:53.394Z,51.00
2022-09-21T08:19:21.390Z,50.00
2022-09-21T08:21:51.344Z,49.90
2022-09-21T08:24:20.505Z,49.90
2022-09-21T08:26:47.143Z,49.90
2022-09-21T08:29:14.441Z,50.00
2022-09-21T08:31:41.219Z,50.20
2022-09-21T08:34:08.260Z,50.20
2022-09-21T08:36:35.228Z,51.00
2022-09-21T08:39:01.890Z,50.40
2022-09-21T08:41:43.927Z,50.50
2022-09-21T08:44:11.873Z,50.50
2022-09-21T08:46:38.902Z,50.50
2022-09-21T08:49:11.199Z,50.50
2022-09-21T08:51:38.843Z,50.60
2022-09-21T08:54:07.357Z,50.60
2022-09-21T08:57:00.613Z,50.70
2022-09-21T08:59:21.647Z,50.70
2022-09-21T09:01:50.877Z,50.70
2022-09-21T09:04:50.016Z,50.70
2022-09-21T09:07:25.963Z,50.70
2022-09-21T09:10:01.783Z,50.80
2022-09-21T09:12:38.207Z,50.90
2022-09-21T09:15:11.029Z,50.90
2022-09-21T09:17:43.750Z,50.90
2022-09-21T09:20:13.438Z,51.00
2022-09-21T09:22:47.503Z,51.00
2022-09-21T09:25:19.239Z,50.90
2022-09-21T09:27:45.905Z,51.00
2022-09-21T09:30:18.816Z,51.00
2022-09-21T09:32:48.472Z,51.10
2022-09-21T09:35:38.459Z,51.10
2022-09-21T09:38:14.714Z,51.20
2022-09-21T09:40:41.701Z,51.30
2022-09-21T09:43:10.773Z,51.20
2022-09-21T09:45:40.560Z,51.30
2022-09-21T09:48:26.591Z,51.20
2022-09-21T09:50:53.236Z,51.30
2022-09-21T09:53:20.906Z,51.20
2022-09-21T09:55:52.237Z,51.30
2022-09-21T09:58:20.159Z,51.30
2022-09-21T10:00:48.047Z,51.30
2022-09-21T10:03:19.117Z,51.40
2022-09-21T10:05:45.859Z,51.20
2022-09-21T10:08:31.469Z,50.90
2022-09-21T10:10:58.350Z,50.70
2022-09-21T10:13:38.625Z,50.40
2022-09-21T10:16:06.453Z,50.10
2022-09-21T10:18:45.436Z,49.90
2022-09-21T10:21:28.283Z,49.80
2022-09-21T10:24:08.146Z,49.80
2022-09-21T10:26:35.377Z,49.80
2022-09-21T10:29:03.219Z,49.90
2022-09-21T10:31:30.527Z,50.00
2022-09-21T10:34:12.610Z,50.00
2022-09-21T10:36:39.381Z,50.10
2022-09-21T10:39:19.175Z,50.20
2022-09-21T10:41:53.108Z,50.20
2022-09-21T10:44:20.407Z,50.30
2022-09-21T10:46:47.854Z,50.40
2022-09-21T10:49:15.612Z,50.30
2022-09-21T10:51:45.377Z,50.40
2022-09-21T10:54:14.178Z,50.50
2022-09-21T10:56:50.155Z,50.50
2022-09-21T10:59:20.093Z,50.40
2022-09-21T11:01:50.527Z,50.50
2022-09-21T11:04:47.247Z,50.50
2022-09-21T11:07:17.036Z,50.50
2022-09-21T11:09:47.343Z,50.60
2022-09-21T11:12:20.701Z,50.60
2022-09-21T11:14:50.854Z,50.60
2022-09-21T11:17:20.811Z,50.60
2022-09-21T11:19:47.911Z,50.60
2022-09-21T11:22:21.009Z,50.70
2022-09-21T11:24:48.597Z,50.70
2022-09-21T11:27:17.013Z,50.40
2022-09-21T11:30:19.893Z,50.20
2022-09-21T11:32:46.912Z,49.90
2022-09-21T11:35:19.886Z,49.60
2022-09-21T11:37:51.612Z,49.50
2022-09-21T11:40:18.428Z,49.60
2022-09-21T11:42:48.969Z,49.50
2022-09-21T11:45:24.147Z,49.60
2022-09-21T11:47:50.799Z,49.50
2022-09-21T11:50:35.575Z,49.60
2022-09-21T11:53:08.291Z,49.70
2022-09-21T11:55:54.961Z,49.80
2022-09-21T11:58:28.703Z,49.90
2022-09-21T12:01:14.871Z,49.90
2022-09-21T12:03:47.588Z,50.00
2022-09-21T12:06:29.754Z,50.10
2022-09-21T12:09:15.131Z,50.10
2022-09-21T12:11:44.264Z,50.20
2022-09-21T12:14:15.368Z,50.10
2022-09-21T12:16:44.600Z,50.30
2022-09-21T12:19:11.362Z,50.20
2022-09-21T12:21:40.514Z,50.30
2022-09-21T12:24:34.007Z,50.40
2022-09-21T12:27:07.424Z,50.30
2022-09-21T12:29:37.229Z,50.30
2022-09-21T12:32:12.417Z,50.40
2022-09-21T12:34:43.368Z,50.40
2022-09-21T12:37:10.318Z,50.40
2022-09-21T12:39:43.579Z,50.40
2022-09-21T12:42:17.688Z,50.50
2022-09-21T12:44:52.340Z,50.50
2022-09-21T12:47:38.792Z,50.50
2022-09-21T12:50:07.058Z,50.40
2022-09-21T12:52:34.425Z,50.30
2022-09-21T12:55:19.873Z,50.00
2022-09-21T12:58:20.887Z,49.80
2022-09-21T13:00:49.795Z,49.60
2022-09-21T13:03:19.363Z,49.40
2022-09-21T13:05:53.404Z,49.20
2022-09-21T13:08:25.699Z,49.20
2022-09-21T13:11:00.713Z,49.40
2022-09-21T13:13:30.650Z,49.30
2022-09-21T13:15:59.608Z,49.60
2022-09-21T13:18:37.039Z,49.50
2022-09-21T13:21:16.975Z,49.60
2022-09-21T13:23:44.475Z,49.60
2022-09-21T13:26:12.662Z,49.70
2022-09-21T13:28:43.170Z,49.70
2022-09-21T13:31:18.525Z,49.80
2022-09-21T13:34:15.978Z,49.80
2022-09-21T13:36:43.540Z,49.90
2022-09-21T13:39:13.419Z,50.00
2022-09-21T13:42:01.780Z,50.00
2022-09-21T13:44:43.281Z,50.10
2022-09-21T13:47:12.471Z,50.00
2022-09-21T13:49:50.930Z,50.20
2022-09-21T13:52:17.874Z,50.10
2022-09-21T13:54:45.355Z,50.30
2022-09-21T13:57:24.186Z,50.30
2022-09-21T14:00:03.903Z,50.30
2022-09-21T14:02:35.357Z,50.30
2022-09-21T14:05:10.922Z,50.10
2022-09-21T14:07:37.953Z,50.40
2022-09-21T14:10:06.315Z,50.10
2022-09-21T14:12:34.323Z,50.40
2022-09-21T14:15:12.855Z,50.50
2022-09-21T14:17:40.246Z,50.50
2022-09-21T14:20:30.434Z,50.30
2022-09-21T14:23:17.311Z,50.20
2022-09-21T14:25:48.264Z,49.60
2022-09-21T14:28:15.007Z,49.60
2022-09-21T14:30:42.793Z,49.30
2022-09-21T14:33:13.100Z,49.30
2022-09-21T14:35:43.781Z,49.20
2022-09-21T14:38:17.273Z,49.30
2022-09-21T14:40:48.176Z,49.60
2022-09-21T14:43:16.248Z,49.50
2022-09-21T14:45:56.007Z,49.60
2022-09-21T14:48:29.373Z,49.70
2022-09-21T14:51:06.546Z,49.90
2022-09-21T14:53:35.544Z,50.00
2022-09-21T14:56:27.203Z,50.00
2022-09-21T14:58:53.847Z,50.10
2022-09-21T15:01:36.250Z,50.20
2022-09-21T15:04:16.658Z,50.40
2022-09-21T15:07:12.878Z,50.20
2022-09-21T15:10:01.511Z,50.30
2022-09-21T15:12:46.578Z,50.50
2022-09-21T15:15:22.827Z,50.50
2022-09-21T15:17:59.314Z,50.70
2022-09-21T15:20:27.305Z,50.80
2022-09-21T15:22:54.928Z,50.90
2022-09-21T15:25:22.016Z,51.00
2022-09-21T15:27:49.590Z,51.10
2022-09-21T15:30:27.135Z,51.10
2022-09-21T15:32:58.002Z,51.10
2022-09-21T15:35:27.737Z,51.10
2022-09-21T15:37:55.441Z,51.30
2022-09-21T15:40:26.132Z,51.30
2022-09-21T15:43:02.385Z,51.30
2022-09-21T15:45:29.908Z,51.30
2022-09-21T15:47:58.353Z,50.90
2022-09-21T15:50:25.039Z,51.00
2022-09-21T15:52:57.344Z,50.80
2022-09-21T15:55:24.330Z,50.30
2022-09-21T15:57:57.043Z,50.20
2022-09-21T16:00:24.311Z,50.30
2022-09-21T16:03:07.452Z,50.40
2022-09-21T16:05:42.476Z,50.30
2022-09-21T16:08:28.200Z,50.50
2022-09-21T16:11:10.260Z,50.60
2022-09-21T16:13:55.623Z,50.60
2022-09-21T16:16:23.641Z,50.30
2022-09-21T16:18:51.323Z,50.90
2022-09-21T16:21:23.987Z,50.60
2022-09-21T16:23:52.324Z,50.30
2022-09-21T16:26:20.757Z,50.90
2022-09-21T16:28:49.362Z,50.80
2022-09-21T16:31:45.081Z,51.00
2022-09-21T16:34:42.752Z,51.20
2022-09-21T16:37:28.087Z,50.60
2022-09-21T16:39:55.267Z,51.40
2022-09-21T16:42:22.862Z,51.60
2022-09-21T16:44:49.704Z,51.60
2022-09-21T16:47:18.576Z,51.80
2022-09-21T16:49:45.730Z,51.80
2022-09-21T16:52:12.537Z,51.70
2022-09-21T16:54:40.140Z,51.80
2022-09-21T16:57:07.452Z,51.80
2022-09-21T16:59:35.158Z,52.00
2022-09-21T17:02:05.277Z,51.90
2022-09-21T17:04:33.596Z,52.00
2022-09-21T17:07:01.594Z,51.60
2022-09-21T17:09:33.333Z,51.40
2022-09-21T17:12:01.919Z,51.20
2022-09-21T17:14:35.568Z,50.90
2022-09-21T17:17:13.317Z,50.80
2022-09-21T17:19:42.788Z,50.70
2022-09-21T17:22:17.376Z,50.70
2022-09-21T17:24:50.804Z,50.80
2022-09-21T17:27:19.461Z,50.90
2022-09-21T17:29:49.888Z,50.80
2022-09-21T17:32:20.879Z,50.90
2022-09-21T17:34:53.511Z,51.10
2022-09-21T17:37:22.548Z,51.20
2022-09-21T17:39:49.919Z,51.10
2022-09-21T17:42:21.209Z,51.20
2022-09-21T17:44:57.135Z,51.30
2022-09-21T17:47:27.857Z,51.30
2022-09-21T17:49:55.171Z,51.30
2022-09-21T17:52:41.166Z,51.30
2022-09-21T17:55:09.157Z,51.40
2022-09-21T17:57:47.648Z,51.60
2022-09-21T18:00:18.656Z,51.60
2022-09-21T18:02:45.455Z,52.30
2022-09-21T18:05:18.668Z,51.70
2022-09-21T18:07:45.495Z,51.70
2022-09-21T18:10:13.799Z,51.70
2022-09-21T18:12:52.761Z,51.70
2022-09-21T18:15:26.365Z,51.70
2022-09-21T18:18:11.790Z,51.70
2022-09-21T18:20:39.482Z,51.70
2022-09-21T18:23:31.087Z,51.70
2022-09-21T18:25:58.044Z,51.70
2022-09-21T18:28:47.126Z,51.60
2022-09-21T18:31:51.311Z,51.40
2022-09-21T18:34:31.069Z,51.00
2022-09-21T18:37:00.796Z,50.70
2022-09-21T18:39:42.800Z,50.50
2022-09-21T18:42:15.533Z,50.30
2022-09-21T18:44:44.684Z,50.10
2022-09-21T18:47:15.715Z,50.10
2022-09-21T18:49:50.432Z,50.20
2022-09-21T18:52:19.350Z,50.40
2022-09-21T18:54:46.232Z,50.40
2022-09-21T18:57:13.604Z,50.50
2022-09-21T18:59:40.604Z,50.50
2022-09-21T19:02:12.150Z,50.60
2022-09-21T19:04:39.768Z,50.80
2022-09-21T19:07:10.581Z,50.80
2022-09-21T19:09:38.099Z,50.80
2022-09-21T19:12:16.965Z,50.90
2022-09-21T19:15:02.011Z,50.90
2022-09-21T19:17:28.662Z,51.00
2022-09-21T19:20:14.217Z,51.00
2022-09-21T19:22:46.788Z,51.10
2022-09-21T19:25:19.756Z,51.00
2022-09-21T19:28:00.673Z,51.10
2022-09-21T19:30:27.510Z,51.20
2022-09-21T19:32:58.159Z,51.20
2022-09-21T19:35:25.094Z,51.20
2022-09-21T19:37:53.532Z,51.30
2022-09-21T19:40:22.839Z,51.30
2022-09-21T19:43:13.927Z,51.30
2022-09-21T19:46:05.559Z,51.30
2022-09-21T19:48:51.238Z,51.30
2022-09-21T19:51:21.766Z,51.40
2022-09-21T19:54:14.304Z,51.40
2022-09-21T19:57:08.340Z,51.40
2022-09-21T19:59:45.449Z,51.40
2022-09-21T20:02:13.399Z,51.50
2022-09-21T20:04:47.504Z,51.50
2022-09-21T20:07:37.039Z,51.40
2022-09-21T20:10:05.073Z,51.50
2022-09-21T20:12:42.752Z,51.50
2022-09-21T20:15:15.895Z,51.60
2022-09-21T20:17:49.673Z,51.50
2022-09-21T20:20:20.655Z,51.50
2022-09-21T20:22:47.420Z,51.50
2022-09-21T20:25:28.238Z,51.50
2022-09-21T20:27:56.020Z,51.50
2022-09-21T20:30:28.572Z,51.50
2022-09-21T20:33:02.515Z,51.50
2022-09-21T20:35:30.341Z,51.20
2022-09-21T20:38:01.929Z,50.90
2022-09-21T20:40:29.427Z,50.60
2022-09-21T20:42:56.133Z,50.30
2022-09-21T20:45:22.925Z,50.10
2022-09-21T20:47:50.007Z,49.90
2022-09-21T20:50:16.838Z,49.80
2022-09-21T20:52:43.597Z,49.80
2022-09-21T20:55:10.880Z,49.80
2022-09-21T20:57:37.528Z,49.90
2022-09-21T21:00:08.249Z,49.90
2022-09-21T21:02:35.244Z,50.00
2022-09-21T21:05:01.929Z,50.10
2022-09-21T21:07:30.695Z,50.20
2022-09-21T21:09:58.797Z,50.30
2022-09-21T21:12:28.662Z,50.30
2022-09-21T21:14:56.264Z,50.40
2022-09-21T21:17:23.103Z,50.40
2022-09-21T21:19:49.856Z,50.50
2022-09-21T21:22:16.531Z,50.50
2022-09-21T21:24:44.385Z,50.50
2022-09-21T21:27:13.094Z,50.50
2022-09-21T21:29:39.841Z,50.70
2022-09-21T21:32:06.598Z,50.70
2022-09-21T21:34:33.417Z,50.70
2022-09-21T21:37:00.117Z,50.70
2022-09-21T21:39:26.824Z,50.80
2022-09-21T21:41:53.639Z,50.80
2022-09-21T21:44:20.417Z,50.80
2022-09-21T21:46:47.169Z,50.80
2022-09-21T21:49:13.984Z,50.80
2022-09-21T21:51:40.703Z,50.90
2022-09-21T21:54:07.534Z,50.90
2022-09-21T21:56:34.249Z,50.90
2022-09-21T21:59:00.884Z,51.00
2022-09-21T22:01:29.394Z,51.00
2022-09-21T22:04:00.089Z,51.00
2022-09-21T22:06:27.583Z,51.00
2022-09-21T22:08:54.479Z,51.00
2022-09-21T22:11:22.319Z,51.00
2022-09-21T22:13:49.104Z,51.00
2022-09-21T22:16:17.237Z,50.90
2022-09-21T22:18:44.056Z,51.10
2022-09-21T22:21:14.646Z,51.10
2022-09-21T22:23:41.388Z,51.10
2022-09-21T22:26:12.030Z,51.10
2022-09-21T22:28:39.296Z,51.10
2022-09-21T22:31:15.987Z,51.10
2022-09-21T22:33:43.395Z,51.00
2022-09-21T22:36:19.735Z,51.10
2022-09-21T22:38:46.672Z,51.10
2022-09-21T22:41:14.208Z,51.10
2022-09-21T22:43:41.025Z,51.10
2022-09-21T22:46:07.707Z,51.20
2022-09-21T22:48:35.152Z,50.90
2022-09-21T22:51:01.962Z,50.60
2022-09-21T22:53:28.784Z,50.40
2022-09-21T22:56:02.941Z,50.20
2022-09-21T22:58:30.196Z,49.90
2022-09-21T23:01:10.959Z,49.70
2022-09-21T23:03:38.004Z,49.60
2022-09-21T23:06:05.557Z,49.60
2022-09-21T23:08:32.557Z,49.60
2022-09-21T23:11:27.172Z,49.60
2022-09-21T23:13:54.235Z,49.50
2022-09-21T23:16:20.982Z,49.70
2022-09-21T23:18:47.866Z,49.80
2022-09-21T23:21:15.106Z,49.90
2022-09-21T23:23:41.999Z,49.90
2022-09-21T23:26:08.753Z,50.00
2022-09-21T23:28:35.592Z,50.00
2022-09-21T23:31:02.968Z,50.10
2022-09-21T23:33:42.695Z,50.10
2022-09-21T23:36:09.986Z,50.10
2022-09-21T23:38:36.699Z,50.20
2022-09-21T23:41:10.239Z,50.20
2022-09-21T23:43:37.204Z,50.30
2022-09-21T23:46:04.087Z,50.30
2022-09-21T23:48:30.829Z,50.40
2022-09-21T23:50:57.522Z,50.40
2022-09-21T23:53:24.437Z,50.40
2022-09-21T23:55:51.114Z,50.50
2022-09-21T23:58:17.817Z,50.40
